Time;durP1;ratioP1;P1;durP2;ratioP2;P2;SDS_P1;SDS_P2;PMS_P1;PMS_P2;Temp;Humidity;BMP_temperature;BMP_pressure;BME280_temperature;BME280_humidity;BME280_pressure;Samples;Min_cycle;Max_cycle;Signal;HPM_P1;HPM_P2
2022/10/13 00:01:16;;;;;;;3.47;2.77;;;18.40;64.90;19.50;101206.00;;;;4970455;28;20654;-47
2022/10/13 00:03:45;;;;;;;3.50;3.20;;;18.40;65.00;19.50;101233.00;;;;4953568;28;20173;-47
2022/10/13 00:06:11;;;;;;;3.13;2.90;;;18.30;64.90;19.50;101228.00;;;;4970751;28;20181;-47
2022/10/13 00:08:38;;;;;;;3.27;2.97;;;18.30;64.90;19.50;101198.00;;;;4968910;28;20575;-48
2022/10/13 00:11:22;;;;;;;3.20;2.90;;;18.30;64.90;19.50;101215.00;;;;4968581;28;20177;-48
2022/10/13 00:13:48;;;;;;;3.13;2.93;;;18.30;64.90;19.40;101228.00;;;;4969173;28;20169;-48
2022/10/13 00:16:17;;;;;;;4.40;3.10;;;18.30;65.00;19.40;101228.00;;;;4967962;28;20268;-49
2022/10/13 00:18:42;;;;;;;4.03;3.00;;;18.30;65.00;19.40;101228.00;;;;4968195;28;20181;-48
2022/10/13 00:21:12;;;;;;;3.30;3.00;;;18.30;65.00;19.40;101211.00;;;;4969542;28;20184;-49
2022/10/13 00:23:38;;;;;;;2.90;2.70;;;18.20;65.00;19.40;101213.00;;;;4968219;28;20259;-49
2022/10/13 00:26:05;;;;;;;4.13;3.00;;;18.20;65.00;19.40;101224.00;;;;4968579;28;20596;-49
2022/10/13 00:28:31;;;;;;;2.87;2.67;;;18.20;65.00;19.40;101197.00;;;;4968798;28;20241;-47
2022/10/13 00:30:56;;;;;;;3.13;2.90;;;18.20;65.00;19.40;101208.00;;;;4969368;28;20327;-47
2022/10/13 00:33:22;;;;;;;3.30;3.00;;;18.20;65.00;19.40;101217.00;;;;4969330;28;20173;-49
2022/10/13 00:35:48;;;;;;;4.07;3.03;;;18.20;65.00;19.30;101214.00;;;;4969148;28;20232;-49
2022/10/13 00:38:15;;;;;;;3.20;2.90;;;18.20;65.00;19.30;101217.00;;;;4969372;28;20203;-49
2022/10/13 00:40:53;;;;;;;4.13;3.07;;;18.10;65.00;19.30;101199.00;;;;4968985;28;20638;-48
2022/10/13 00:43:21;;;;;;;3.10;2.80;;;18.10;65.10;19.30;101208.00;;;;4967904;28;20169;-49
2022/10/13 00:45:49;;;;;;;3.20;2.90;;;18.10;65.20;19.30;101158.00;;;;4968460;28;20618;-50
2022/10/13 00:48:17;;;;;;;3.20;2.93;;;18.10;65.20;19.30;101219.00;;;;4968416;28;20621;-47
2022/10/13 00:50:42;;;;;;;3.10;2.80;;;18.10;65.20;19.30;101221.00;;;;4968217;28;20240;-48
2022/10/13 00:53:09;;;;;;;3.60;3.00;;;18.10;65.10;19.20;101213.00;;;;4968243;28;20228;-48
2022/10/13 00:55:36;;;;;;;3.00;2.80;;;18.10;65.20;19.20;101212.00;;;;4967749;28;20203;-48
2022/10/13 00:58:05;;;;;;;4.07;3.03;;;18.10;65.10;19.20;101211.00;;;;4969106;28;20224;-48
2022/10/13 01:00:31;;;;;;;3.73;3.00;;;18.10;65.20;19.20;101211.00;;;;4954030;28;20180;-49
2022/10/13 01:02:57;;;;;;;3.23;2.80;;;18.00;65.10;19.20;101214.00;;;;4968941;28;20232;-48
2022/10/13 01:05:23;;;;;;;3.10;2.80;;;18.10;65.10;19.20;101209.00;;;;4969142;28;20597;-47
2022/10/13 01:07:49;;;;;;;3.20;2.90;;;18.10;65.10;19.20;101201.00;;;;4968185;28;20291;-48
2022/10/13 01:10:34;;;;;;;3.20;3.00;;;18.10;65.00;19.20;101190.00;;;;4969356;28;20522;-48
2022/10/13 01:13:26;;;;;;;2.97;2.70;;;18.10;65.00;19.10;101196.00;;;;4967891;28;20161;-48
2022/10/13 01:16:14;;;;;;;3.13;2.83;;;18.00;65.00;19.10;101187.00;;;;4967952;28;20197;-48
2022/10/13 01:19:04;;;;;;;3.30;3.00;;;18.00;65.10;19.10;101180.00;;;;4952986;28;20181;-47
2022/10/13 01:21:35;;;;;;;2.93;2.73;;;18.00;65.10;19.10;101187.00;;;;4968604;28;20174;-48
2022/10/13 01:24:32;;;;;;;3.00;2.80;;;18.00;65.20;19.10;101174.00;;;;4967779;28;20185;-48
2022/10/13 01:27:16;;;;;;;3.33;3.03;;;18.00;65.40;19.10;101170.00;;;;4970833;28;20201;-48
2022/10/13 01:30:10;;;;;;;3.03;2.83;;;17.90;65.40;19.10;101163.00;;;;4971311;28;20709;-48
2022/10/13 01:33:26;;;;;;;3.27;2.80;;;18.00;65.50;19.00;101170.00;;;;4971351;28;20162;-48
2022/10/13 01:36:31;;;;;;;2.97;2.77;;;17.90;65.40;19.00;101163.00;;;;4911719;29;20366;-48
2022/10/13 01:39:06;;;;;;;3.10;2.80;;;17.90;65.40;19.00;101160.00;;;;4970936;28;20173;-48
2022/10/13 01:41:37;;;;;;;3.17;2.87;;;17.90;65.40;19.00;101152.00;;;;4955516;28;20239;-49
2022/10/13 01:44:31;;;;;;;3.10;2.90;;;17.90;65.40;19.00;101161.00;;;;4970916;28;20207;-49
2022/10/13 01:46:57;;;;;;;3.10;2.87;;;17.90;65.40;19.00;101157.00;;;;4971954;28;20201;-49
2022/10/13 01:49:27;;;;;;;2.90;2.70;;;17.90;65.50;19.00;101143.00;;;;4970751;28;20207;-48
2022/10/13 01:51:54;;;;;;;3.10;2.90;;;17.80;65.40;19.00;101149.00;;;;4955012;28;20328;-47
2022/10/13 01:54:20;;;;;;;3.10;2.80;;;17.80;65.40;19.00;101164.00;;;;4954942;28;20218;-48
2022/10/13 01:56:52;;;;;;;2.77;2.57;;;17.80;65.50;19.00;101137.00;;;;4971570;28;20209;-47
2022/10/13 01:59:18;;;;;;;3.10;2.77;;;17.80;65.70;19.00;101151.00;;;;4970325;28;20621;-48
2022/10/13 02:02:19;;;;;;;3.37;3.07;;;17.80;65.60;19.00;101145.00;;;;4970468;28;20173;-48
2022/10/13 02:04:59;;;;;;;3.00;2.80;;;17.80;65.70;19.00;101149.00;;;;4956597;28;20188;-48
2022/10/13 02:07:36;;;;;;;3.10;2.90;;;17.80;65.60;19.00;101142.00;;;;4956037;28;20197;-48
2022/10/13 02:10:16;;;;;;;3.10;2.80;;;17.80;65.70;19.00;101133.00;;;;4970613;28;20740;-48
2022/10/13 02:12:59;;;;;;;3.10;2.80;;;17.80;65.80;19.00;101139.00;;;;4955836;28;20165;-48
2022/10/13 02:15:31;;;;;;;2.93;2.60;;;17.80;65.80;18.90;101144.00;;;;4954992;28;20197;-48
2022/10/13 02:17:57;;;;;;;3.20;2.90;;;17.80;65.80;18.90;101145.00;;;;4970259;28;20197;-49
2022/10/13 02:20:23;;;;;;;2.80;2.60;;;17.80;65.70;18.90;101144.00;;;;4953935;28;20757;-48
2022/10/13 02:22:54;;;;;;;3.27;2.80;;;17.80;65.70;18.90;101134.00;;;;4970094;28;20177;-47
2022/10/13 02:25:20;;;;;;;2.90;2.70;;;17.70;65.70;18.90;101144.00;;;;4954576;28;20161;-48
2022/10/13 02:27:46;;;;;;;3.17;2.87;;;17.70;65.70;18.90;101131.00;;;;4971387;28;20228;-48
2022/10/13 02:30:21;;;;;;;3.10;2.80;;;17.70;65.70;18.90;101132.00;;;;4970296;28;20181;-48
2022/10/13 02:32:46;;;;;;;3.00;2.80;;;17.70;65.80;18.90;101129.00;;;;4970385;28;20179;-47
2022/10/13 02:35:12;;;;;;;3.20;2.90;;;17.70;65.80;18.90;101131.00;;;;4969425;28;20577;-49
2022/10/13 02:37:38;;;;;;;2.80;2.60;;;17.70;65.80;18.90;101132.00;;;;4970928;28;20196;-49
2022/10/13 02:40:05;;;;;;;3.00;2.70;;;17.70;65.80;18.90;101138.00;;;;4970955;28;20185;-49
2022/10/13 02:42:30;;;;;;;3.27;2.77;;;17.70;65.90;18.90;101147.00;;;;4970488;28;20494;-47
2022/10/13 02:44:56;;;;;;;2.83;2.63;;;17.70;65.90;18.90;101133.00;;;;4972228;28;20263;-49
2022/10/13 02:47:22;;;;;;;2.80;2.60;;;17.70;65.90;18.90;101142.00;;;;4970935;28;20208;-49
2022/10/13 02:49:47;;;;;;;2.90;2.70;;;17.70;65.90;18.90;101143.00;;;;4970966;28;20248;-49
2022/10/13 02:52:13;;;;;;;2.90;2.70;;;17.60;65.80;18.80;101137.00;;;;4970995;28;20212;-47
2022/10/13 02:54:39;;;;;;;3.07;2.87;;;17.60;65.80;18.80;101139.00;;;;4971204;28;20608;-48
2022/10/13 02:57:04;;;;;;;2.83;2.63;;;17.60;65.80;18.80;101143.00;;;;4971033;28;20598;-48
2022/10/13 02:59:30;;;;;;;3.03;2.83;;;17.60;65.80;18.80;101143.00;;;;4971363;28;20198;-48
2022/10/13 03:01:56;;;;;;;3.20;2.90;;;17.60;65.70;18.80;101134.00;;;;4970156;28;20192;-48
2022/10/13 03:04:22;;;;;;;2.97;2.70;;;17.70;65.80;18.80;101132.00;;;;4971193;28;20189;-50
2022/10/13 03:06:47;;;;;;;3.00;2.80;;;17.70;65.80;18.80;101140.00;;;;4969980;28;20196;-47
2022/10/13 03:09:13;;;;;;;3.10;2.80;;;17.70;65.80;18.80;101149.00;;;;4970641;28;20686;-47
2022/10/13 03:11:39;;;;;;;3.00;2.80;;;17.60;65.70;18.80;101145.00;;;;4970426;28;20184;-49
2022/10/13 03:14:05;;;;;;;2.73;2.53;;;17.60;65.80;18.80;101057.00;;;;4969137;28;20185;-49
2022/10/13 03:16:30;;;;;;;3.10;2.80;;;17.60;65.80;18.70;101124.00;;;;4965936;28;20360;-49
2022/10/13 03:18:56;;;;;;;3.03;2.73;;;17.60;65.80;18.70;101125.00;;;;4967770;28;20778;-48
2022/10/13 03:21:22;;;;;;;3.10;2.80;;;17.60;65.80;18.70;101119.00;;;;4968045;28;20180;-47
2022/10/13 03:23:48;;;;;;;3.00;2.70;;;17.60;65.80;18.80;101122.00;;;;4969430;28;20187;-47
2022/10/13 03:26:15;;;;;;;2.77;2.57;;;17.60;65.80;18.70;101114.00;;;;4970185;28;20180;-47
2022/10/13 03:28:40;;;;;;;3.67;3.10;;;17.60;66.00;18.70;101121.00;;;;4970097;28;20240;-48
2022/10/13 03:31:07;;;;;;;4.00;2.80;;;17.60;66.00;18.70;101110.00;;;;4970162;28;20188;-47
2022/10/13 03:33:33;;;;;;;4.37;2.80;;;17.60;65.80;18.70;101108.00;;;;4968233;28;20260;-48
2022/10/13 03:36:00;;;;;;;6.70;2.77;;;17.60;66.40;18.70;101089.00;;;;4969847;28;20226;-48
2022/10/13 03:38:27;;;;;;;5.40;2.83;;;17.60;65.70;18.70;101105.00;;;;4968801;28;20244;-47
2022/10/13 03:40:52;;;;;;;7.27;3.03;;;17.60;65.80;18.70;101104.00;;;;4968581;28;20177;-49
2022/10/13 03:43:18;;;;;;;5.47;3.10;;;17.60;65.80;18.70;101101.00;;;;4969762;28;20620;-47
2022/10/13 03:45:44;;;;;;;4.93;2.90;;;17.60;65.90;18.70;101104.00;;;;4969772;28;20180;-47
2022/10/13 03:48:10;;;;;;;4.00;2.97;;;17.60;66.00;18.70;101093.00;;;;4969413;28;20289;-48
2022/10/13 03:50:36;;;;;;;5.73;2.87;;;17.50;65.80;18.70;101095.00;;;;4970716;28;20176;-47
2022/10/13 03:53:02;;;;;;;8.07;3.00;;;17.50;65.70;18.70;101087.00;;;;4970657;28;20685;-47
2022/10/13 03:55:28;;;;;;;5.00;2.97;;;17.50;65.70;18.70;101088.00;;;;4969942;28;20208;-48
2022/10/13 03:57:53;;;;;;;6.53;2.80;;;17.50;65.60;18.70;101082.00;;;;4971014;28;20208;-47
2022/10/13 04:00:19;;;;;;;7.87;2.97;;;17.60;65.70;18.70;101083.00;;;;4971000;28;20264;-48
2022/10/13 04:02:48;;;;;;;5.13;2.77;;;17.50;65.60;18.70;101086.00;;;;4970337;28;20311;-48
2022/10/13 04:05:14;;;;;;;6.17;2.70;;;17.50;65.60;18.70;101082.00;;;;4952813;28;20189;-47
2022/10/13 04:07:40;;;;;;;4.63;2.80;;;17.50;65.60;18.60;101083.00;;;;4970797;28;20204;-47
2022/10/13 04:10:06;;;;;;;3.77;3.07;;;17.50;65.60;18.40;101081.00;;;;4971112;28;20211;-47
2022/10/13 04:12:32;;;;;;;8.03;3.03;;;17.50;65.90;18.60;101078.00;;;;4971108;28;20189;-47
2022/10/13 04:14:57;;;;;;;4.07;2.50;;;17.50;65.40;18.60;101075.00;;;;4970061;28;20182;-47
2022/10/13 04:17:23;;;;;;;4.40;2.77;;;17.50;65.40;18.60;101071.00;;;;4970280;28;20270;-47
2022/10/13 04:19:49;;;;;;;6.30;3.00;;;17.50;65.40;18.60;101077.00;;;;4970756;28;20174;-47
2022/10/13 04:22:15;;;;;;;4.23;2.60;;;17.50;65.30;18.60;101082.00;;;;4968807;28;20797;-48
2022/10/13 04:24:41;;;;;;;6.33;2.97;;;17.50;65.30;18.60;101077.00;;;;4969842;28;20172;-48
2022/10/13 04:27:06;;;;;;;5.33;2.80;;;17.50;65.40;18.30;101079.00;;;;4968730;28;20204;-47
2022/10/13 04:29:32;;;;;;;4.43;2.73;;;17.50;65.40;18.60;101075.00;;;;4973014;28;20168;-47
2022/10/13 04:31:58;;;;;;;3.30;2.70;;;17.40;65.40;18.60;101071.00;;;;4972777;28;20165;-47
2022/10/13 04:34:24;;;;;;;4.00;2.70;;;17.50;65.40;18.60;101069.00;;;;4969727;28;20246;-47
2022/10/13 04:36:50;;;;;;;2.97;2.67;;;17.50;65.30;18.50;101054.00;;;;4971348;28;20534;-47
2022/10/13 04:39:17;;;;;;;4.53;3.20;;;17.40;65.30;18.60;101071.00;;;;4970358;28;20529;-48
2022/10/13 04:41:43;;;;;;;4.77;2.70;;;17.50;65.30;18.50;101064.00;;;;4970317;28;20175;-47
2022/10/13 04:44:08;;;;;;;3.83;2.97;;;17.40;65.40;18.50;101072.00;;;;4969209;28;20621;-47
2022/10/13 04:46:34;;;;;;;3.73;2.77;;;17.40;65.40;18.50;101060.00;;;;4970326;28;20206;-46
2022/10/13 04:49:00;;;;;;;8.57;3.20;;;17.40;65.50;18.50;101056.00;;;;4970280;28;20190;-49
2022/10/13 04:51:26;;;;;;;5.43;2.90;;;17.40;65.50;18.50;101060.00;;;;4970374;28;20431;-48
2022/10/13 04:53:59;;;;;;;5.53;3.13;;;17.40;65.40;18.50;101058.00;;;;4969929;28;20558;-48
2022/10/13 04:56:25;;;;;;;3.27;2.90;;;17.40;65.40;18.50;101061.00;;;;4970028;28;20212;-47
2022/10/13 04:58:51;;;;;;;4.83;2.97;;;17.40;65.40;18.50;101050.00;;;;4970100;28;20665;-47
2022/10/13 05:01:19;;;;;;;7.53;3.43;;;17.40;65.40;18.50;101053.00;;;;4970885;28;20172;-47
2022/10/13 05:03:45;;;;;;;6.50;3.53;;;17.40;65.40;18.50;101032.00;;;;4973316;28;20199;-47
2022/10/13 05:06:20;;;;;;;5.23;3.50;;;17.40;65.40;18.50;101049.00;;;;4972394;28;20183;-47
2022/10/13 05:08:45;;;;;;;3.50;3.17;;;17.30;65.50;18.50;101062.00;;;;4973737;28;20673;-48
2022/10/13 05:11:11;;;;;;;11.50;4.37;;;17.30;65.50;18.50;101047.00;;;;4973605;28;20172;-47
2022/10/13 05:13:37;;;;;;;15.27;4.33;;;17.30;65.60;18.50;101055.00;;;;4971764;28;20180;-47
2022/10/13 05:16:10;;;;;;;8.63;3.93;;;17.30;65.60;18.40;101041.00;;;;4973300;28;20198;-48
2022/10/13 05:18:36;;;;;;;13.67;4.27;;;17.30;65.50;18.40;101061.00;;;;4973110;28;20196;-46
2022/10/13 05:21:09;;;;;;;15.80;4.60;;;17.30;65.50;18.40;101059.00;;;;4973613;28;20680;-47
2022/10/13 05:23:34;;;;;;;15.57;5.00;;;17.30;65.60;18.40;101052.00;;;;4973119;28;20173;-47
2022/10/13 05:26:12;;;;;;;12.97;4.73;;;17.30;65.60;18.40;101051.00;;;;4973167;28;20187;-47
2022/10/13 05:28:38;;;;;;;12.50;5.20;;;17.30;65.60;18.40;101036.00;;;;4973492;28;20190;-47
2022/10/13 05:31:21;;;;;;;15.50;4.80;;;17.30;65.50;18.40;101037.00;;;;4973505;28;20649;-48
2022/10/13 05:33:47;;;;;;;12.37;4.57;;;17.30;65.50;18.40;101035.00;;;;4972798;28;20161;-48
2022/10/13 05:36:15;;;;;;;11.70;4.47;;;17.30;65.50;18.40;101018.00;;;;4972690;28;20696;-48
2022/10/13 05:38:41;;;;;;;7.90;4.20;;;17.30;65.50;18.40;101037.00;;;;4972154;28;20172;-48
2022/10/13 05:41:09;;;;;;;9.87;4.30;;;17.30;65.50;18.40;101035.00;;;;4973534;28;20769;-48
2022/10/13 05:43:35;;;;;;;10.80;4.53;;;17.30;65.50;18.40;100995.00;;;;4972984;28;20171;-48
2022/10/13 05:46:01;;;;;;;9.70;4.57;;;17.30;65.50;18.40;101054.00;;;;4971621;28;20179;-48
2022/10/13 05:48:27;;;;;;;10.17;4.40;;;17.20;65.40;18.40;101046.00;;;;4973121;28;20818;-48
2022/10/13 05:50:53;;;;;;;13.23;4.23;;;17.30;65.50;18.40;101033.00;;;;4972365;28;20176;-48
2022/10/13 05:53:19;;;;;;;8.60;4.17;;;17.20;65.30;18.40;101017.00;;;;4971541;28;20222;-48
2022/10/13 05:55:45;;;;;;;9.27;4.00;;;17.20;65.30;18.40;101014.00;;;;4955092;28;20208;-48
2022/10/13 05:58:10;;;;;;;7.00;4.10;;;17.20;65.20;18.40;100976.00;;;;4971381;28;20207;-48
2022/10/13 06:00:36;;;;;;;10.60;4.07;;;17.20;65.20;18.40;101005.00;;;;4971936;28;20173;-48
2022/10/13 06:03:14;;;;;;;8.30;4.13;;;17.20;65.20;18.40;101020.00;;;;4971420;28;20209;-48
2022/10/13 06:05:41;;;;;;;7.70;4.03;;;17.30;65.30;18.40;101019.00;;;;4971813;28;20187;-48
2022/10/13 06:08:08;;;;;;;8.37;3.70;;;17.20;65.20;18.40;101023.00;;;;4972537;28;20570;-48
2022/10/13 06:10:35;;;;;;;6.33;3.80;;;17.20;65.20;18.30;101015.00;;;;4971436;28;20828;-48
2022/10/13 06:13:01;;;;;;;7.03;3.80;;;17.20;65.20;18.30;101020.00;;;;4955469;28;20191;-48
2022/10/13 06:15:27;;;;;;;8.80;4.30;;;17.20;65.30;18.30;101007.00;;;;4971623;28;20207;-47
2022/10/13 06:17:52;;;;;;;8.23;4.07;;;17.20;65.30;18.30;101006.00;;;;4972376;28;20189;-47
2022/10/13 06:20:19;;;;;;;6.83;3.60;;;17.20;65.20;18.30;101001.00;;;;4972475;28;20200;-48
2022/10/13 06:22:45;;;;;;;7.43;4.10;;;17.20;65.20;18.30;101002.00;;;;4972435;28;20170;-47
2022/10/13 06:25:11;;;;;;;5.23;3.70;;;17.20;65.10;18.30;101005.00;;;;4971960;28;20205;-48
2022/10/13 06:27:36;;;;;;;7.60;4.17;;;17.20;65.10;18.30;101002.00;;;;4972470;28;20216;-48
2022/10/13 06:30:03;;;;;;;7.57;3.70;;;17.20;65.10;18.30;101006.00;;;;4972153;28;20190;-47
2022/10/13 06:32:29;;;;;;;5.60;3.30;;;17.20;65.10;18.30;101006.00;;;;4972456;28;20173;-48
2022/10/13 06:34:54;;;;;;;8.77;3.70;;;17.20;65.10;18.30;101006.00;;;;4971665;28;20654;-47
2022/10/13 06:37:20;;;;;;;5.30;3.57;;;17.20;65.10;18.30;101011.00;;;;4971925;28;20335;-48
2022/10/13 06:39:46;;;;;;;6.73;3.70;;;17.20;65.10;18.30;101015.00;;;;4972213;28;20209;-48
2022/10/13 06:42:11;;;;;;;4.87;3.43;;;17.20;65.10;18.30;101023.00;;;;4972232;28;20171;-47
2022/10/13 06:44:37;;;;;;;5.97;3.90;;;17.20;65.20;18.30;101016.00;;;;4971540;28;20167;-48
2022/10/13 06:47:04;;;;;;;5.03;3.40;;;17.20;65.10;18.30;101018.00;;;;4972328;28;20662;-48
2022/10/13 06:49:30;;;;;;;6.07;3.80;;;17.10;65.00;18.30;101017.00;;;;4972253;28;20652;-48
2022/10/13 06:51:55;;;;;;;5.90;4.13;;;17.20;65.00;18.30;101002.00;;;;4971883;28;20175;-48
2022/10/13 06:54:21;;;;;;;5.17;3.70;;;17.20;65.00;18.20;101006.00;;;;4971091;28;20210;-48
2022/10/13 06:56:47;;;;;;;6.30;3.60;;;17.10;65.70;18.30;101006.00;;;;4971545;28;20265;-47
2022/10/13 06:59:12;;;;;;;7.13;3.97;;;17.10;65.00;18.30;101001.00;;;;4971719;28;20164;-46
2022/10/13 07:01:38;;;;;;;6.43;3.50;;;17.10;64.90;18.20;100996.00;;;;4973172;28;20166;-48
2022/10/13 07:04:05;;;;;;;5.17;3.50;;;17.10;65.80;18.20;101009.00;;;;4971719;28;20190;-46
2022/10/13 07:06:30;;;;;;;7.17;3.30;;;17.10;65.00;18.20;101009.00;;;;4971913;28;20198;-47
2022/10/13 07:08:56;;;;;;;3.80;3.40;;;17.10;64.90;18.20;101014.00;;;;4971424;28;20666;-47
2022/10/13 07:11:22;;;;;;;6.00;3.47;;;17.10;65.00;18.20;101010.00;;;;4971688;28;20207;-47
2022/10/13 07:13:47;;;;;;;4.37;3.30;;;17.10;65.00;18.20;101013.00;;;;4970816;28;20239;-46
2022/10/13 07:16:14;;;;;;;4.03;3.30;;;17.10;64.90;18.20;101009.00;;;;4971142;28;20208;-47
2022/10/13 07:18:40;;;;;;;4.30;3.33;;;17.10;64.90;18.20;101011.00;;;;4972353;28;20719;-46
2022/10/13 07:21:05;;;;;;;4.00;3.27;;;17.10;64.90;18.20;100995.00;;;;4972352;28;20184;-47
2022/10/13 07:23:31;;;;;;;4.47;3.17;;;17.10;65.00;18.20;101008.00;;;;4970971;28;20204;-48
2022/10/13 07:25:57;;;;;;;5.70;3.20;;;17.10;65.00;18.20;101025.00;;;;4971420;28;20183;-47
2022/10/13 07:28:24;;;;;;;4.00;3.33;;;17.10;65.00;18.20;101031.00;;;;4971360;28;20601;-46
2022/10/13 07:30:50;;;;;;;4.50;3.17;;;17.10;65.00;18.20;101020.00;;;;4971408;28;20217;-47
2022/10/13 07:33:15;;;;;;;4.27;3.50;;;17.10;65.00;18.20;101025.00;;;;4971414;28;20201;-47
2022/10/13 07:35:41;;;;;;;4.63;3.33;;;17.10;64.90;18.20;101008.00;;;;4970730;28;20199;-47
2022/10/13 07:38:07;;;;;;;5.47;3.30;;;17.10;65.00;18.20;101021.00;;;;4970760;28;20199;-47
2022/10/13 07:40:33;;;;;;;3.57;3.13;;;17.10;64.90;18.20;101022.00;;;;4971606;28;20177;-47
2022/10/13 07:42:59;;;;;;;4.10;3.40;;;17.10;64.90;18.10;101012.00;;;;4971491;28;20174;-47
2022/10/13 07:45:25;;;;;;;4.90;3.20;;;17.10;64.90;18.20;101002.00;;;;4970687;28;20184;-47
2022/10/13 07:47:50;;;;;;;4.40;3.13;;;17.00;64.80;18.10;101005.00;;;;4971337;28;20209;-47
2022/10/13 07:50:16;;;;;;;3.93;3.10;;;17.00;64.80;18.10;100999.00;;;;4971621;28;20681;-47
2022/10/13 07:52:42;;;;;;;4.00;3.00;;;17.00;64.80;18.10;101002.00;;;;4971328;28;20641;-47
2022/10/13 07:55:08;;;;;;;3.97;3.40;;;17.00;64.80;18.10;101009.00;;;;4968978;28;20720;-47
2022/10/13 07:57:34;;;;;;;3.40;3.10;;;17.00;64.80;18.10;101023.00;;;;4968972;28;20228;-47
2022/10/13 08:00:00;;;;;;;3.63;3.27;;;17.00;64.90;18.10;101030.00;;;;4970773;28;20181;-47
2022/10/13 08:02:25;;;;;;;3.50;3.07;;;17.00;64.90;18.10;101020.00;;;;4881069;28;20628;-48
2022/10/13 08:04:51;;;;;;;5.13;3.70;;;17.00;65.10;18.10;101011.00;;;;4975951;28;20182;-47
2022/10/13 08:07:17;;;;;;;4.57;3.30;;;16.90;65.20;18.10;101022.00;;;;4970747;28;20200;-47
2022/10/13 08:09:44;;;;;;;4.77;3.40;;;17.00;65.40;18.10;101036.00;;;;4970478;28;20255;-47
2022/10/13 08:12:10;;;;;;;9.03;3.50;;;17.00;65.40;18.10;101018.00;;;;4969173;28;20170;-47
2022/10/13 08:14:36;;;;;;;4.93;3.20;;;17.00;65.50;18.10;100994.00;;;;4970210;28;20202;-46
2022/10/13 08:17:02;;;;;;;4.10;3.33;;;17.00;65.60;18.10;101012.00;;;;4970427;28;20242;-47
2022/10/13 08:19:27;;;;;;;6.17;3.47;;;17.00;65.80;18.10;101011.00;;;;4970660;28;20198;-47
2022/10/13 08:21:53;;;;;;;5.83;3.30;;;17.00;65.70;18.10;101005.00;;;;4970485;28;20202;-47
2022/10/13 08:24:21;;;;;;;3.70;3.40;;;17.00;65.80;18.10;101012.00;;;;4970187;28;20179;-46
2022/10/13 08:26:47;;;;;;;8.47;3.40;;;17.00;65.80;18.10;101014.00;;;;4967458;28;20234;-47
2022/10/13 08:29:13;;;;;;;6.53;3.80;;;17.00;66.20;18.10;101018.00;;;;4970700;28;20689;-47
2022/10/13 08:31:39;;;;;;;6.43;3.07;;;17.00;66.00;18.10;101017.00;;;;4970810;28;20228;-47
2022/10/13 08:34:05;;;;;;;13.10;3.70;;;17.00;66.00;18.10;101023.00;;;;4969218;28;20597;-50
2022/10/13 08:36:31;;;;;;;18.40;3.73;;;17.00;66.10;18.10;101018.00;;;;4974384;28;20199;-47
2022/10/13 08:38:57;;;;;;;17.07;4.10;;;17.00;66.20;18.10;101020.00;;;;4974779;28;20182;-48
2022/10/13 08:41:25;;;;;;;10.27;3.40;;;17.00;66.10;18.10;101017.00;;;;4973298;28;20182;-46
2022/10/13 08:43:54;;;;;;;15.57;3.87;;;17.10;66.20;18.20;101024.00;;;;4973885;28;20175;-47
2022/10/13 08:46:27;;;;;;;12.50;3.80;;;17.10;66.20;18.20;101011.00;;;;4974317;28;20229;-48
2022/10/13 08:48:54;;;;;;;11.10;3.70;;;17.10;66.30;18.20;101024.00;;;;4941550;28;20195;-47
2022/10/13 08:51:19;;;;;;;9.93;3.63;;;17.10;66.20;18.20;101001.00;;;;4972181;28;20211;-47
2022/10/13 08:53:45;;;;;;;10.63;3.30;;;17.10;66.20;18.20;101005.00;;;;4973029;28;20696;-47
2022/10/13 08:56:18;;;;;;;5.30;3.30;;;17.20;66.20;18.20;100999.00;;;;4972785;28;20193;-47
2022/10/13 08:58:43;;;;;;;11.07;3.60;;;17.10;66.10;18.20;101007.00;;;;4974326;28;20253;-47
2022/10/13 09:01:19;;;;;;;6.40;3.20;;;17.10;66.30;18.20;101000.00;;;;4973532;28;20179;-46
2022/10/13 09:03:50;;;;;;;8.70;3.27;;;17.10;66.30;18.20;100998.00;;;;4945962;28;20170;-47
2022/10/13 09:06:32;;;;;;;8.90;3.50;;;17.10;66.70;18.20;100995.00;;;;4980123;28;20640;-47
2022/10/13 09:09:09;;;;;;;8.50;3.60;;;17.10;66.80;18.20;100967.00;;;;4972976;28;20197;-47
2022/10/13 09:11:40;;;;;;;6.93;3.10;;;17.20;66.80;18.20;100985.00;;;;4972757;28;20409;-47
2022/10/13 09:14:10;;;;;;;9.83;3.13;;;17.20;66.60;18.20;100990.00;;;;4973761;28;20174;-47
2022/10/13 09:16:40;;;;;;;9.93;3.70;;;17.20;66.50;18.20;100994.00;;;;4974039;28;20564;-48
2022/10/13 09:19:26;;;;;;;7.67;3.43;;;17.10;66.60;18.20;100991.00;;;;4972287;28;20208;-47
2022/10/13 09:21:57;;;;;;;6.37;3.50;;;17.20;66.60;18.20;101002.00;;;;4973775;28;20158;-47
2022/10/13 09:24:25;;;;;;;7.93;3.50;;;17.20;67.20;18.20;100993.00;;;;4974510;28;20541;-47
2022/10/13 09:27:26;;;;;;;7.20;3.00;;;17.10;66.40;18.20;100992.00;;;;4974068;28;20763;-48
2022/10/13 09:29:52;;;;;;;7.83;3.23;;;17.10;66.40;18.20;100990.00;;;;4970265;28;20243;-48
2022/10/13 09:32:20;;;;;;;9.57;3.30;;;17.20;66.90;18.20;100994.00;;;;4972632;28;20210;-48
2022/10/13 09:34:46;;;;;;;6.60;3.60;;;17.10;66.60;18.20;100995.00;;;;4973483;28;20179;-47
2022/10/13 09:37:24;;;;;;;6.50;3.37;;;17.20;66.60;18.20;100990.00;;;;4973186;28;20677;-48
2022/10/13 09:40:29;;;;;;;8.27;3.10;;;17.10;66.40;18.20;100974.00;;;;4981081;28;20750;-48
2022/10/13 09:42:55;;;;;;;4.03;3.00;;;17.10;66.40;18.20;100979.00;;;;4916833;29;20279;-48
2022/10/13 09:45:22;;;;;;;4.67;3.17;;;17.20;66.40;18.20;100996.00;;;;4958221;28;20185;-48
2022/10/13 09:48:03;;;;;;;18.20;4.50;;;17.20;66.40;18.20;100979.00;;;;4971499;28;20202;-48
2022/10/13 09:50:30;;;;;;;19.47;4.93;;;17.20;66.50;18.20;100978.00;;;;4972298;28;20187;-47
2022/10/13 09:53:34;;;;;;;20.90;4.83;;;17.20;67.10;18.20;100969.00;;;;4971947;28;20226;-48
2022/10/13 09:56:45;;;;;;;15.67;5.00;;;17.20;67.90;18.20;100974.00;;;;4943048;28;20242;-48
2022/10/13 09:59:20;;;;;;;19.73;4.77;;;17.20;67.00;18.20;100965.00;;;;4938439;29;20211;-48
2022/10/13 10:01:48;;;;;;;16.33;4.77;;;17.20;67.00;18.00;100935.00;;;;4837121;28;20217;-46
2022/10/13 10:04:30;;;;;;;13.43;4.63;;;17.20;66.80;18.20;100969.00;;;;4961185;28;20171;-47
2022/10/13 10:06:56;;;;;;;14.40;4.87;;;17.20;66.80;18.20;100960.00;;;;4992007;28;20193;-47
2022/10/13 10:09:46;;;;;;;9.83;4.20;;;17.20;66.70;18.20;100969.00;;;;4992035;28;20197;-48
2022/10/13 10:12:19;;;;;;;13.53;4.37;;;17.20;66.70;18.20;100962.00;;;;4987772;28;20232;-48
2022/10/13 10:14:47;;;;;;;9.53;4.60;;;17.20;66.60;18.20;100951.00;;;;4992132;28;20171;-48
2022/10/13 10:17:40;;;;;;;12.37;4.90;;;17.20;66.60;18.20;100948.00;;;;4991375;28;20640;-48
2022/10/13 10:20:36;;;;;;;12.00;4.73;;;17.20;66.60;18.20;100945.00;;;;4991480;28;20174;-48
2022/10/13 10:23:17;;;;;;;12.97;4.60;;;17.20;66.50;18.20;100946.00;;;;4992786;28;20230;-47
2022/10/13 10:25:51;;;;;;;12.60;4.40;;;17.20;66.40;18.20;100951.00;;;;4990376;28;20174;-47
2022/10/13 10:28:42;;;;;;;12.33;4.50;;;17.30;67.20;18.30;100950.00;;;;4991032;28;20199;-47
2022/10/13 10:31:19;;;;;;;12.77;4.53;;;17.20;67.10;18.20;100947.00;;;;4993123;28;20255;-48
2022/10/13 10:34:25;;;;;;;14.23;4.30;;;17.30;67.50;18.20;100948.00;;;;4991373;28;20592;-48
2022/10/13 10:37:29;;;;;;;13.30;4.40;;;17.30;67.50;18.30;100945.00;;;;4990352;28;20203;-47
2022/10/13 10:40:23;;;;;;;12.43;4.27;;;17.20;67.90;18.30;100934.00;;;;4988728;28;20175;-48
2022/10/13 10:42:55;;;;;;;8.77;4.00;;;17.30;68.30;18.20;100927.00;;;;4970706;28;20174;-49
2022/10/13 10:45:25;;;;;;;9.73;4.20;;;17.30;68.10;18.30;100910.00;;;;4970604;28;20177;-46
2022/10/13 10:47:54;;;;;;;13.07;4.20;;;17.40;68.30;18.30;100927.00;;;;4954924;28;20204;-49
2022/10/13 10:50:20;;;;;;;12.10;4.10;;;17.40;68.30;18.30;100927.00;;;;4954976;28;20175;-50
2022/10/13 10:53:04;;;;;;;8.33;4.20;;;17.40;68.40;18.40;100926.00;;;;4964511;28;20173;-48
2022/10/13 10:55:35;;;;;;;7.30;4.30;;;17.50;68.50;18.40;100929.00;;;;4960572;28;20202;-49
2022/10/13 10:58:39;;;;;;;10.97;4.40;;;17.50;68.50;18.40;100919.00;;;;4945876;28;20215;-49